Time;durP1;ratioP1;P1;durP2;ratioP2;P2;SDS_P1;SDS_P2;PMS_P1;PMS_P2;Temp;Humidity;BMP_temperature;BMP_pressure;BME280_temperature;BME280_humidity;BME280_pressure;Samples;Min_cycle;Max_cycle;Signal;HPM_P1;HPM_P2
2021/03/17 00:00:51;;;;;;;16.67;10.50;;;;;;;2.24;75.11;98330.91;5110103;28;20027;-76
2021/03/17 00:03:17;;;;;;;16.02;9.68;;;;;;;2.22;74.96;98333.84;5111516;28;20432;-76
2021/03/17 00:05:44;;;;;;;16.23;9.20;;;;;;;2.20;75.27;98324.34;5110513;28;20019;-76
2021/03/17 00:08:09;;;;;;;17.27;10.23;;;;;;;2.19;75.18;98328.09;5110313;28;20102;-76
2021/03/17 00:10:37;;;;;;;16.67;10.45;;;;;;;2.22;75.40;98325.72;5109670;28;20127;-76
2021/03/17 00:13:04;;;;;;;17.75;10.52;;;;;;;2.23;75.24;98315.72;5111031;28;20027;-76
2021/03/17 00:15:33;;;;;;;18.35;10.40;;;;;;;2.26;74.71;98322.53;5110848;28;20030;-77
2021/03/17 00:17:59;;;;;;;14.98;8.50;;;;;;;2.28;75.33;98313.06;5109974;28;20380;-77
2021/03/17 00:20:26;;;;;;;15.68;10.77;;;;;;;2.28;74.97;98317.69;5108854;28;20034;-77
2021/03/17 00:22:52;;;;;;;21.33;10.77;;;;;;;2.26;74.94;98322.53;5108942;28;20027;-76
2021/03/17 00:25:26;;;;;;;16.77;10.82;;;;;;;2.25;74.84;98327.09;5109037;28;20049;-77
2021/03/17 00:27:52;;;;;;;17.77;11.02;;;;;;;2.27;75.11;98322.25;5107966;28;20028;-77
2021/03/17 00:30:17;;;;;;;19.25;11.15;;;;;;;2.27;75.33;98327.69;5109206;28;20020;-77
2021/03/17 00:32:43;;;;;;;17.27;10.77;;;;;;;2.25;75.19;98313.56;5107666;28;20141;-77
2021/03/17 00:35:09;;;;;;;16.15;10.70;;;;;;;2.25;74.58;98324.38;5110607;28;20101;-76
2021/03/17 00:37:34;;;;;;;17.92;11.07;;;;;;;2.28;74.89;98321.19;5108240;28;20364;-76
2021/03/17 00:39:59;;;;;;;16.58;10.57;;;;;;;2.30;74.91;98331.78;5108361;28;20082;-76
2021/03/17 00:42:25;;;;;;;18.30;11.85;;;;;;;2.32;75.16;98318.84;5109836;28;20153;-76
2021/03/17 00:44:50;;;;;;;20.27;12.25;;;;;;;2.31;75.05;98317.19;5109167;28;20084;-76
2021/03/17 00:47:15;;;;;;;19.85;12.57;;;;;;;2.30;74.91;98312.84;5107055;28;21292;-76
2021/03/17 00:49:41;;;;;;;20.10;12.40;;;;;;;2.26;75.16;98314.41;5109309;28;20205;-76
2021/03/17 00:52:06;;;;;;;21.15;12.90;;;;;;;2.19;75.23;98317.28;5109712;28;20050;-76
2021/03/17 00:54:31;;;;;;;19.90;12.55;;;;;;;2.17;75.60;98317.50;5109775;28;20023;-76
2021/03/17 00:56:57;;;;;;;20.15;11.88;;;;;;;2.15;75.65;98316.13;5105912;28;20039;-76
2021/03/17 00:59:22;;;;;;;19.42;11.88;;;;;;;2.13;75.78;98315.56;5109753;28;20028;-76
2021/03/17 01:01:48;;;;;;;20.08;12.20;;;;;;;2.16;75.85;98317.75;5109470;28;20442;-76
2021/03/17 01:04:13;;;;;;;18.35;10.65;;;;;;;2.13;75.74;98315.56;5109706;28;20023;-77
2021/03/17 01:06:38;;;;;;;16.35;10.43;;;;;;;2.10;75.97;98311.44;5109127;28;20063;-76
2021/03/17 01:09:04;;;;;;;14.38;9.38;;;;;;;2.07;75.76;98312.75;5108756;28;20065;-76
2021/03/17 01:11:30;;;;;;;14.68;9.07;;;;;;;2.06;76.07;98321.94;5109113;28;20091;-76
2021/03/17 01:13:55;;;;;;;17.30;11.23;;;;;;;2.03;76.07;98318.91;5109744;28;20039;-76
2021/03/17 01:16:20;;;;;;;18.25;10.98;;;;;;;2.00;76.12;98306.66;5107537;28;20043;-77
2021/03/17 01:18:46;;;;;;;19.77;11.98;;;;;;;2.00;75.74;98314.78;5109540;28;20513;-76
2021/03/17 01:21:11;;;;;;;19.10;12.13;;;;;;;2.02;75.88;98315.38;5110462;28;20031;-77
2021/03/17 01:23:37;;;;;;;15.77;8.98;;;;;;;1.99;76.29;98315.84;5110722;28;20024;-77
2021/03/17 01:26:03;;;;;;;18.83;11.38;;;;;;;1.96;76.24;98312.81;5111140;28;20105;-77
2021/03/17 01:28:28;;;;;;;21.88;13.95;;;;;;;1.97;76.05;98323.38;5111540;28;20036;-77
2021/03/17 01:30:56;;;;;;;17.35;11.18;;;;;;;1.92;76.51;98310.59;5093520;28;20034;-77
2021/03/17 01:33:30;;;;;;;17.17;10.95;;;;;;;1.86;76.62;98316.97;5110944;28;20042;-77
2021/03/17 01:35:56;;;;;;;17.02;10.85;;;;;;;1.89;76.58;98311.09;5110978;28;20028;-77
2021/03/17 01:38:23;;;;;;;17.63;11.93;;;;;;;1.91;76.59;98313.53;5110954;28;20480;-77
2021/03/17 01:40:50;;;;;;;22.52;13.15;;;;;;;1.92;76.66;98305.19;5111065;28;20023;-77
2021/03/17 01:43:16;;;;;;;19.35;11.88;;;;;;;1.99;76.36;98305.03;5110937;28;20103;-77
2021/03/17 01:45:42;;;;;;;20.20;12.23;;;;;;;2.02;76.62;98303.75;5111808;28;20141;-78
2021/03/17 01:48:08;;;;;;;20.63;12.93;;;;;;;2.00;76.06;98306.66;5106626;28;20495;-77
2021/03/17 01:50:39;;;;;;;17.50;9.98;;;;;;;1.95;76.25;98317.41;5109370;28;20429;-77
2021/03/17 01:53:08;;;;;;;23.15;11.13;;;;;;;1.93;76.25;98311.41;5109514;28;20112;-78
2021/03/17 01:55:33;;;;;;;24.40;13.60;;;;;;;1.90;76.75;98310.03;5109986;28;20027;-77
2021/03/17 01:58:00;;;;;;;21.95;13.43;;;;;;;1.93;76.50;98311.41;5111506;28;20093;-76
2021/03/17 02:00:25;;;;;;;19.45;11.88;;;;;;;1.92;76.48;98312.47;5108312;28;20026;-77
2021/03/17 02:02:55;;;;;;;21.42;13.10;;;;;;;1.92;76.62;98305.19;5110870;28;20023;-77
2021/03/17 02:05:23;;;;;;;18.02;10.75;;;;;;;1.92;76.81;98307.91;5110471;28;20118;-77
2021/03/17 02:07:48;;;;;;;19.83;12.25;;;;;;;1.92;76.56;98310.59;5109435;28;20015;-77
2021/03/17 02:10:17;;;;;;;23.45;13.90;;;;;;;1.96;76.85;98302.81;5113977;28;20047;-77
2021/03/17 02:13:03;;;;;;;16.17;9.70;;;;;;;1.93;76.93;98309.53;5114746;28;20085;-77
2021/03/17 02:15:46;;;;;;;19.90;12.88;;;;;;;1.93;76.48;98301.44;5111985;28;20387;-77
2021/03/17 02:18:20;;;;;;;17.73;9.52;;;;;;;1.93;76.56;98301.44;5112504;28;20036;-77
2021/03/17 02:21:20;;;;;;;21.67;13.00;;;;;;;1.94;77.21;98302.22;5113465;28;20030;-77
2021/03/17 02:24:07;;;;;;;19.98;12.35;;;;;;;1.94;77.27;98302.22;5109141;28;20042;-77
2021/03/17 02:26:54;;;;;;;27.60;14.57;;;;;;;1.96;77.20;98299.28;5111006;28;20057;-77
2021/03/17 02:29:53;;;;;;;21.33;13.00;;;;;;;1.95;76.41;98303.06;5113694;28;20028;-76
2021/03/17 02:32:37;;;;;;;21.03;12.57;;;;;;;1.96;77.20;98305.50;5113916;28;20035;-77
2021/03/17 02:35:10;;;;;;;18.35;11.40;;;;;;;1.98;76.88;98303.38;5113101;28;20118;-76
2021/03/17 02:37:45;;;;;;;16.20;9.98;;;;;;;2.01;77.21;98305.59;5096710;28;20490;-77
2021/03/17 02:40:21;;;;;;;18.17;11.18;;;;;;;2.03;76.70;98298.06;5108673;28;20031;-77
2021/03/17 02:43:11;;;;;;;19.02;12.27;;;;;;;2.04;76.95;98298.88;5113309;28;20047;-77
2021/03/17 02:45:38;;;;;;;;;;;;;;;2.03;76.97;98292.66;5113348;28;20102;-77
2021/03/17 02:48:08;;;;;;;20.13;11.82;;;;;;;2.00;76.72;98301.25;5113104;28;19919;-77
2021/03/17 02:50:36;;;;;;;18.00;11.55;;;;;;;2.01;77.10;98302.09;5096106;28;20034;-76
2021/03/17 02:53:03;;;;;;;14.57;9.65;;;;;;;1.98;76.74;98300.69;5114498;28;20032;-76
2021/03/17 02:55:32;;;;;;;14.73;8.38;;;;;;;1.94;76.48;98304.94;5111806;28;20031;-76
2021/03/17 02:57:59;;;;;;;17.83;11.15;;;;;;;1.86;76.43;98292.63;5113558;28;20395;-77
2021/03/17 03:00:27;;;;;;;18.60;10.95;;;;;;;1.82;76.53;98301.50;5113481;28;20118;-75
2021/03/17 03:02:53;;;;;;;16.88;10.48;;;;;;;1.78;76.34;98307.38;5114628;28;20027;-75
2021/03/17 03:05:19;;;;;;;16.23;10.45;;;;;;;1.73;76.74;98304.59;5114021;28;20032;-75
2021/03/17 03:07:48;;;;;;;14.38;9.20;;;;;;;1.73;76.72;98311.84;5114645;28;20023;-74
2021/03/17 03:10:16;;;;;;;13.93;9.30;;;;;;;1.71;76.75;98306.72;5110642;28;20054;-75
2021/03/17 03:12:42;;;;;;;15.20;8.90;;;;;;;1.68;76.31;98309.91;5114611;28;20027;-74
2021/03/17 03:15:09;;;;;;;11.23;7.30;;;;;;;1.68;76.49;98312.59;5113399;28;20468;-74
2021/03/17 03:17:35;;;;;;;10.95;7.43;;;;;;;1.66;76.37;98309.31;5114400;28;20426;-77
2021/03/17 03:20:09;;;;;;;8.98;6.25;;;;;;;1.63;76.49;98309.78;5111365;28;20042;-74
2021/03/17 03:22:34;;;;;;;9.02;6.35;;;;;;;1.58;76.02;98310.53;5109694;28;20081;-75
2021/03/17 03:25:00;;;;;;;8.70;6.20;;;;;;;1.58;76.30;98307.00;5113022;28;20027;-74
2021/03/17 03:27:27;;;;;;;9.90;6.85;;;;;;;1.57;76.39;98308.88;5114589;28;20024;-75
2021/03/17 03:29:53;;;;;;;9.73;7.07;;;;;;;1.51;76.47;98315.25;5112847;28;20027;-75
2021/03/17 03:32:19;;;;;;;9.48;7.00;;;;;;;1.42;76.53;98312.13;5114284;28;20035;-75
2021/03/17 03:34:45;;;;;;;12.15;8.40;;;;;;;1.40;76.73;98308.84;5112897;28;20028;-75
2021/03/17 03:37:12;;;;;;;10.13;6.75;;;;;;;1.37;76.61;98306.59;5114072;28;20032;-75
2021/03/17 03:39:38;;;;;;;16.30;8.90;;;;;;;1.40;76.73;98308.00;5113288;28;20419;-74
2021/03/17 03:42:03;;;;;;;14.70;8.85;;;;;;;1.33;76.34;98310.84;5113242;28;20123;-75
2021/03/17 03:44:29;;;;;;;13.88;8.68;;;;;;;1.33;76.95;98313.53;5110924;28;20024;-75
2021/03/17 03:46:54;;;;;;;12.38;7.43;;;;;;;1.31;77.01;98318.38;5094315;28;20510;-75
2021/03/17 03:49:20;;;;;;;18.75;9.80;;;;;;;1.28;77.08;98321.53;5095417;28;20023;-75
2021/03/17 03:51:58;;;;;;;15.52;8.88;;;;;;;1.26;76.83;98323.66;5113465;28;20027;-75
2021/03/17 03:54:31;;;;;;;17.85;10.10;;;;;;;1.26;77.25;98326.38;5113757;28;20023;-76
2021/03/17 03:57:13;;;;;;;39.63;17.10;;;;;;;1.26;77.21;98329.88;5111931;28;20468;-76
2021/03/17 03:59:45;;;;;;;21.95;11.85;;;;;;;1.27;77.36;98322.59;5111220;28;20023;-76
2021/03/17 04:02:17;;;;;;;25.55;14.02;;;;;;;1.29;77.11;98324.00;5110693;28;20028;-75
2021/03/17 04:04:47;;;;;;;28.13;14.48;;;;;;;1.31;77.29;98327.28;5110419;28;20039;-76
2021/03/17 04:07:15;;;;;;;25.80;12.48;;;;;;;1.31;77.46;98326.47;5110966;28;20051;-75
2021/03/17 04:09:50;;;;;;;22.00;12.73;;;;;;;1.29;77.54;98328.59;5108262;28;20043;-75
2021/03/17 04:12:17;;;;;;;21.25;11.68;;;;;;;1.28;77.51;98321.53;5111041;28;20485;-75
2021/03/17 04:14:47;;;;;;;18.73;10.73;;;;;;;1.29;77.60;98328.59;5105382;28;20028;-76
2021/03/17 04:17:23;;;;;;;18.33;10.85;;;;;;;1.31;77.15;98321.88;5094352;28;20024;-76
2021/03/17 04:19:54;;;;;;;19.17;10.98;;;;;;;1.32;77.27;98328.91;5108976;28;20039;-78
2021/03/17 04:22:21;;;;;;;19.38;11.38;;;;;;;1.33;77.26;98327.06;5099044;28;20111;-77
2021/03/17 04:24:50;;;;;;;18.75;11.40;;;;;;;1.32;77.98;98334.31;5113799;28;20198;-78
2021/03/17 04:27:17;;;;;;;19.83;12.35;;;;;;;1.34;78.06;98320.59;5093972;28;20036;-78
2021/03/17 04:29:45;;;;;;;21.38;12.52;;;;;;;1.32;77.82;98323.53;5108849;28;20042;-79
2021/03/17 04:32:11;;;;;;;19.15;12.73;;;;;;;1.31;78.51;98318.38;5113597;28;20027;-78
2021/03/17 04:34:37;;;;;;;22.30;12.65;;;;;;;1.32;78.47;98322.72;5114283;28;20050;-78
2021/03/17 04:37:03;;;;;;;19.73;10.98;;;;;;;1.32;78.27;98323.53;5093653;28;20028;-78
2021/03/17 04:39:30;;;;;;;24.70;11.80;;;;;;;1.33;78.24;98316.25;5106585;28;20058;-78
2021/03/17 04:41:57;;;;;;;20.58;11.73;;;;;;;1.32;78.17;98328.91;5094636;28;20059;-78
2021/03/17 04:44:23;;;;;;;25.95;13.00;;;;;;;1.33;78.53;98327.06;5093736;28;20094;-77
2021/03/17 04:46:49;;;;;;;21.25;12.15;;;;;;;1.35;78.74;98327.63;5106772;28;20038;-77
2021/03/17 04:49:18;;;;;;;24.42;13.10;;;;;;;1.38;78.20;98323.63;5102777;28;20491;-78
2021/03/17 04:51:44;;;;;;;19.45;11.40;;;;;;;1.36;78.68;98329.28;5110835;28;20031;-78
2021/03/17 04:54:10;;;;;;;20.98;12.27;;;;;;;1.37;78.06;98330.09;5096734;28;20071;-78
2021/03/17 04:56:38;;;;;;;14.35;7.90;;;;;;;1.40;78.76;98326.91;5093456;28;20486;-78
2021/03/17 04:59:06;;;;;;;15.80;9.32;;;;;;;1.41;78.53;98320.44;5094546;28;20867;-78
2021/03/17 05:01:34;;;;;;;22.33;13.60;;;;;;;1.42;78.61;98322.94;5104719;28;20026;-77
2021/03/17 05:04:01;;;;;;;22.58;12.50;;;;;;;1.43;78.84;98326.44;5113592;28;20027;-78
2021/03/17 05:06:31;;;;;;;20.98;11.75;;;;;;;1.43;78.73;98326.44;5113421;28;20464;-78
2021/03/17 05:08:58;;;;;;;20.97;11.77;;;;;;;1.47;78.84;98327.59;5106182;28;20044;-78
2021/03/17 05:11:24;;;;;;;26.75;13.95;;;;;;;1.48;78.42;98330.03;5093056;28;20048;-78
2021/03/17 05:13:50;;;;;;;23.27;12.40;;;;;;;1.53;78.96;98326.66;5092877;28;20078;-78
2021/03/17 05:16:16;;;;;;;22.10;10.95;;;;;;;1.53;78.60;98323.94;5093021;28;20032;-78
2021/03/17 05:18:43;;;;;;;21.45;11.85;;;;;;;1.58;78.58;98332.16;5097043;28;20023;-77
2021/03/17 05:21:11;;;;;;;29.63;15.18;;;;;;;1.62;78.43;98333.31;5113440;28;20024;-77
2021/03/17 05:23:39;;;;;;;38.40;18.48;;;;;;;1.68;78.82;98336.09;5113167;28;20353;-77
2021/03/17 05:26:05;;;;;;;30.60;14.50;;;;;;;1.71;78.26;98339.16;5093377;28;20028;-77
2021/03/17 05:28:32;;;;;;;38.65;20.13;;;;;;;1.72;78.39;98337.25;5095518;28;20490;-77
2021/03/17 05:30:58;;;;;;;38.40;19.45;;;;;;;1.76;78.85;98333.84;5087232;28;20388;-76
2021/03/17 05:33:26;;;;;;;24.92;13.80;;;;;;;1.79;78.76;98340.63;5094741;28;20503;-76
2021/03/17 05:35:51;;;;;;;22.17;12.30;;;;;;;1.78;78.37;98342.53;5102616;28;20407;-77
2021/03/17 05:38:17;;;;;;;25.05;12.80;;;;;;;1.79;78.28;98340.63;5112547;28;20032;-76
2021/03/17 05:40:42;;;;;;;22.20;12.45;;;;;;;1.75;78.05;98343.03;5111313;28;20028;-77
2021/03/17 05:43:08;;;;;;;25.65;13.65;;;;;;;1.72;78.25;98348.91;5095265;28;20024;-78
2021/03/17 05:45:35;;;;;;;41.20;22.27;;;;;;;1.78;78.49;98344.41;5092668;28;20034;-77
2021/03/17 05:48:03;;;;;;;29.40;13.85;;;;;;;1.81;78.14;98351.22;5091433;28;20028;-77
2021/03/17 05:50:29;;;;;;;39.03;19.38;;;;;;;1.83;78.31;98349.09;5099165;28;20374;-77
2021/03/17 05:52:56;;;;;;;116.32;50.35;;;;;;;1.84;78.44;98350.72;5099332;28;20042;-77
2021/03/17 05:55:21;;;;;;;80.60;34.60;;;;;;;1.88;78.14;98354.59;5111856;28;20039;-76
2021/03/17 05:57:46;;;;;;;58.88;25.90;;;;;;;1.86;77.81;98352.13;5111940;28;20024;-77
2021/03/17 06:00:20;;;;;;;27.05;14.45;;;;;;;1.87;78.00;98351.06;5096083;28;20400;-76
2021/03/17 06:02:48;;;;;;;39.13;24.02;;;;;;;1.89;77.84;98356.22;5094663;28;20028;-76
2021/03/17 06:05:14;;;;;;;55.88;30.33;;;;;;;1.91;78.01;98363.06;5106893;28;20042;-78
2021/03/17 06:07:51;;;;;;;49.08;23.00;;;;;;;1.88;77.99;98360.84;5098705;28;20051;-77
2021/03/17 06:10:19;;;;;;;117.63;41.10;;;;;;;1.82;78.14;98361.78;5112485;28;20395;-76
2021/03/17 06:12:49;;;;;;;164.80;54.40;;;;;;;1.84;78.44;98359.66;5112722;28;20118;-77
2021/03/17 06:15:19;;;;;;;199.90;66.60;;;;;;;1.87;77.70;98363.75;5098874;28;20020;-76
2021/03/17 06:17:48;;;;;;;135.48;47.65;;;;;;;1.91;77.76;98365.75;5093499;28;20028;-76
2021/03/17 06:20:14;;;;;;;139.00;48.92;;;;;;;1.95;78.08;98374.19;5104036;28;20088;-76
2021/03/17 06:22:41;;;;;;;28.55;13.43;;;;;;;1.95;77.87;98370.69;5112720;28;20047;-76
2021/03/17 06:25:08;;;;;;;196.05;69.10;;;;;;;1.93;77.94;98371.75;5108928;28;20024;-75
2021/03/17 06:27:34;;;;;;;54.38;24.85;;;;;;;1.99;77.94;98378.06;5104815;28;20283;-76
2021/03/17 06:30:03;;;;;;;70.32;29.48;;;;;;;1.97;77.48;98374.78;5107174;28;20031;-76
2021/03/17 06:32:30;;;;;;;71.45;30.23;;;;;;;2.01;77.74;98383.25;5112307;28;20032;-75
2021/03/17 06:34:56;;;;;;;74.85;32.90;;;;;;;1.99;76.89;98383.47;5112568;28;20031;-76
2021/03/17 06:37:35;;;;;;;29.30;14.38;;;;;;;1.98;77.41;98386.44;5112603;28;20423;-75
2021/03/17 06:40:01;;;;;;;46.55;22.15;;;;;;;1.95;77.35;98386.91;5112630;28;20033;-76
2021/03/17 06:42:41;;;;;;;38.28;20.80;;;;;;;1.96;77.26;98391.25;5112454;28;20044;-75
2021/03/17 06:45:07;;;;;;;30.77;17.83;;;;;;;2.01;77.49;98394.88;5112253;28;20027;-75
2021/03/17 06:47:32;;;;;;;24.67;14.05;;;;;;;2.02;77.54;98396.53;5111448;28;20046;-75
2021/03/17 06:49:58;;;;;;;18.73;10.50;;;;;;;1.95;77.42;98400.44;5109539;28;20569;-75
2021/03/17 06:52:36;;;;;;;14.40;8.43;;;;;;;1.92;76.88;98393.63;5111138;28;20111;-76
2021/03/17 06:55:22;;;;;;;21.00;12.35;;;;;;;1.84;76.73;98399.41;5109244;28;20030;-75
2021/03/17 06:57:50;;;;;;;19.15;10.88;;;;;;;1.77;76.84;98399.53;5113137;28;20096;-76
2021/03/17 07:00:31;;;;;;;20.65;10.00;;;;;;;1.74;76.86;98400.03;5113908;28;20035;-76
2021/03/17 07:03:01;;;;;;;17.50;9.70;;;;;;;1.74;76.65;98395.47;5114557;28;20032;-76
2021/03/17 07:05:41;;;;;;;13.80;8.30;;;;;;;1.74;76.65;98395.47;5113140;28;20058;-76
2021/03/17 07:08:10;;;;;;;26.48;13.73;;;;;;;1.73;76.82;98404.63;5114033;28;20552;-76
2021/03/17 07:10:37;;;;;;;30.08;15.63;;;;;;;1.72;77.32;98405.69;5115793;28;20047;-76
2021/03/17 07:13:04;;;;;;;24.10;13.27;;;;;;;1.80;76.81;98403.66;5116012;28;20107;-76
2021/03/17 07:15:31;;;;;;;21.92;12.05;;;;;;;1.82;76.89;98402.34;5115763;28;20020;-76
2021/03/17 07:18:28;;;;;;;33.38;17.75;;;;;;;1.78;76.86;98398.50;5110923;28;20055;-76
2021/03/17 07:21:02;;;;;;;23.15;13.20;;;;;;;1.75;77.24;98402.50;5115524;28;20028;-77
2021/03/17 07:23:36;;;;;;;31.73;15.20;;;;;;;1.82;77.50;98405.06;5105888;28;20693;-76
2021/03/17 07:26:17;;;;;;;25.70;12.35;;;;;;;1.82;76.85;98402.34;5095263;28;20027;-76
2021/03/17 07:28:51;;;;;;;27.30;14.25;;;;;;;1.81;77.10;98403.41;5112405;28;20055;-75
2021/03/17 07:31:22;;;;;;;40.08;20.50;;;;;;;1.81;77.24;98408.03;5112831;28;20042;-77
2021/03/17 07:33:48;;;;;;;52.65;24.85;;;;;;;1.84;77.56;98407.50;5112332;28;20030;-77
2021/03/17 07:36:33;;;;;;;24.67;12.30;;;;;;;1.83;77.39;98405.91;5096410;28;20024;-78
2021/03/17 07:39:03;;;;;;;47.53;29.35;;;;;;;1.87;77.80;98407.03;5114073;28;20769;-78
2021/03/17 07:41:29;;;;;;;29.83;17.25;;;;;;;1.90;77.42;98404.69;5110952;28;20027;-76
2021/03/17 07:43:54;;;;;;;25.35;14.63;;;;;;;1.90;77.79;98404.69;5113381;28;20059;-78
2021/03/17 07:46:24;;;;;;;25.30;14.02;;;;;;;1.88;77.09;98409.50;5114259;28;20055;-77
2021/03/17 07:48:50;;;;;;;32.40;17.67;;;;;;;1.96;77.64;98416.41;5094981;28;20104;-75
2021/03/17 07:51:17;;;;;;;38.63;21.17;;;;;;;2.06;77.74;98408.50;5112093;28;20063;-76
2021/03/17 07:53:47;;;;;;;28.42;15.48;;;;;;;2.15;77.84;98414.34;5113285;28;20502;-76
2021/03/17 07:56:14;;;;;;;29.02;16.63;;;;;;;2.19;77.76;98407.38;5105504;28;20031;-76
2021/03/17 07:58:40;;;;;;;27.23;14.38;;;;;;;2.21;77.18;98409.84;5094800;28;20038;-76
2021/03/17 08:01:06;;;;;;;25.30;14.30;;;;;;;2.21;77.38;98409.84;5115172;27;20035;-76
2021/03/17 08:03:31;;;;;;;25.73;13.40;;;;;;;2.21;77.21;98405.25;5095855;28;20035;-76
2021/03/17 08:05:57;;;;;;;68.18;26.63;;;;;;;2.23;77.19;98407.72;5112536;28;20110;-77
2021/03/17 08:08:23;;;;;;;59.42;24.55;;;;;;;2.23;77.21;98407.72;5112991;28;20032;-75
2021/03/17 08:10:50;;;;;;;52.83;23.27;;;;;;;2.25;77.82;98421.00;5114400;28;20031;-76
2021/03/17 08:13:17;;;;;;;36.53;16.40;;;;;;;2.23;77.68;98422.06;5114302;28;20395;-76
2021/03/17 08:15:44;;;;;;;65.75;27.15;;;;;;;2.21;77.79;98418.78;5114038;28;20034;-75
2021/03/17 08:18:36;;;;;;;74.80;33.83;;;;;;;2.23;77.87;98419.38;5113799;28;20030;-75
2021/03/17 08:21:03;;;;;;;41.53;20.10;;;;;;;2.28;77.33;98415.09;5109690;28;20131;-78
2021/03/17 08:23:46;;;;;;;47.90;24.27;;;;;;;2.31;77.62;98415.44;5114426;28;20031;-76
2021/03/17 08:26:31;;;;;;;22.80;13.55;;;;;;;2.38;77.47;98416.09;5114130;28;20035;-76
2021/03/17 08:28:57;;;;;;;22.33;12.35;;;;;;;2.36;77.49;98423.66;5096291;28;20090;-76
2021/03/17 08:31:37;;;;;;;21.42;11.68;;;;;;;2.38;77.33;98416.09;5114181;28;20491;-76
2021/03/17 08:34:18;;;;;;;28.17;14.02;;;;;;;2.38;77.26;98426.94;5114243;28;20096;-76
2021/03/17 08:36:44;;;;;;;26.00;12.98;;;;;;;2.40;77.63;98418.59;5114185;28;20039;-76
2021/03/17 08:39:09;;;;;;;25.33;13.38;;;;;;;2.43;77.98;98418.09;5114380;28;20016;-78
2021/03/17 08:41:44;;;;;;;27.65;15.82;;;;;;;2.45;77.89;98424.06;5114400;28;20031;-78
2021/03/17 08:44:19;;;;;;;33.53;16.80;;;;;;;2.43;77.61;98430.81;5114337;28;20035;-76
2021/03/17 08:46:45;;;;;;;21.75;11.50;;;;;;;2.43;78.09;98428.94;5114283;28;20130;-77
2021/03/17 08:49:12;;;;;;;23.73;10.57;;;;;;;2.45;77.66;98418.66;5114428;28;20024;-79
2021/03/17 08:51:46;;;;;;;27.77;14.13;;;;;;;2.45;77.52;98431.38;5114130;28;20549;-78
2021/03/17 08:54:33;;;;;;;26.92;15.15;;;;;;;2.41;77.70;98436.47;5114098;28;20472;-77
2021/03/17 08:57:00;;;;;;;32.13;16.02;;;;;;;2.43;77.39;98433.50;5114144;28;20522;-77
2021/03/17 08:59:59;;;;;;;25.48;13.32;;;;;;;2.44;77.54;98437.84;5114002;28;20059;-78
2021/03/17 09:02:24;;;;;;;23.70;12.88;;;;;;;2.47;77.55;98432.75;5113948;28;20080;-76
2021/03/17 09:04:50;;;;;;;30.95;17.00;;;;;;;2.52;77.65;98432.84;5113717;28;20414;-73
2021/03/17 09:07:16;;;;;;;23.60;13.18;;;;;;;2.59;77.28;98426.47;5113694;28;20114;-76
2021/03/17 09:09:53;;;;;;;24.33;13.85;;;;;;;2.67;77.86;98431.50;5094346;28;20400;-77
2021/03/17 09:12:48;;;;;;;23.90;13.02;;;;;;;2.75;77.69;98427.53;5113437;28;20419;-74
2021/03/17 09:15:15;;;;;;;25.75;16.17;;;;;;;2.84;77.56;98431.50;5110965;28;20040;-77
2021/03/17 09:17:57;;;;;;;26.25;13.07;;;;;;;2.96;77.41;98436.81;5112140;28;20111;-75
2021/03/17 09:20:45;;;;;;;29.20;16.17;;;;;;;3.07;77.58;98425.06;5111886;28;20020;-76
2021/03/17 09:23:19;;;;;;;30.45;19.50;;;;;;;3.23;77.07;98436.16;5113312;28;20036;-75
2021/03/17 09:25:55;;;;;;;33.95;19.77;;;;;;;3.30;77.08;98441.41;5113241;28;20116;-76
2021/03/17 09:28:28;;;;;;;44.13;22.63;;;;;;;3.43;77.65;98446.47;5113115;28;20028;-75
2021/03/17 09:30:56;;;;;;;35.15;18.05;;;;;;;3.52;77.13;98438.72;5105109;28;20061;-75
2021/03/17 09:33:26;;;;;;;29.20;15.35;;;;;;;3.65;77.04;98449.22;5112507;28;20023;-75
2021/03/17 09:35:53;;;;;;;;;;;;;;;3.78;76.55;98444.47;5113371;28;20084;-75
2021/03/17 09:38:20;;;;;;;35.95;17.55;;;;;;;3.91;76.81;98443.25;5112582;28;19912;-76
2021/03/17 09:40:57;;;;;;;36.67;17.20;;;;;;;3.97;76.08;98448.53;5112601;28;20024;-76
2021/03/17 09:43:38;;;;;;;30.63;16.15;;;;;;;4.08;76.56;98440.47;5094072;28;20023;-75
2021/03/17 09:46:37;;;;;;;49.28;20.15;;;;;;;4.09;75.26;98451.09;5112467;28;20024;-75
2021/03/17 09:49:08;;;;;;;43.70;20.13;;;;;;;4.15;76.08;98446.53;5112611;28;20063;-76
2021/03/17 09:51:39;;;;;;;46.00;20.50;;;;;;;4.13;75.30;98446.81;5112122;28;20028;-75
2021/03/17 09:54:07;;;;;;;57.95;25.30;;;;;;;4.13;74.76;98448.69;5112311;28;20373;-76
2021/03/17 09:56:37;;;;;;;60.95;23.92;;;;;;;4.11;75.20;98453.53;5111959;28;20085;-76
2021/03/17 09:59:17;;;;;;;53.00;22.75;;;;;;;4.20;74.44;98445.78;5111705;28;20053;-77
2021/03/17 10:02:10;;;;;;;39.55;17.38;;;;;;;4.26;75.17;98436.63;5093706;28;20036;-76
2021/03/17 10:04:42;;;;;;;64.85;23.33;;;;;;;4.35;74.98;98450.56;5073903;28;20056;-76
2021/03/17 10:07:10;;;;;;;46.92;20.88;;;;;;;4.43;73.83;98447.38;5112123;28;20028;-77
2021/03/17 10:09:35;;;;;;;50.85;23.70;;;;;;;4.49;73.56;98448.25;5111895;28;20088;-75
2021/03/17 10:12:05;;;;;;;37.50;18.50;;;;;;;4.50;73.21;98453.41;5111814;28;20421;-75
2021/03/17 10:14:31;;;;;;;43.17;19.85;;;;;;;4.51;73.28;98456.97;5112036;28;20032;-75
2021/03/17 10:17:01;;;;;;;37.53;18.70;;;;;;;4.54;73.64;98448.31;5093777;28;20046;-75
2021/03/17 10:19:26;;;;;;;51.83;25.77;;;;;;;4.68;73.08;98445.97;5112134;28;20043;-75
2021/03/17 10:21:54;;;;;;;38.15;20.27;;;;;;;4.88;73.85;98450.78;5112343;28;20023;-75
2021/03/17 10:24:30;;;;;;;38.88;20.40;;;;;;;4.97;72.71;98445.69;5111938;28;20034;-75
2021/03/17 10:26:55;;;;;;;38.72;19.85;;;;;;;5.06;71.87;98449.56;5111956;28;20034;-76
2021/03/17 10:29:21;;;;;;;29.42;15.98;;;;;;;5.21;70.89;98449.69;5113150;28;20390;-75
2021/03/17 10:31:47;;;;;;;29.73;14.98;;;;;;;5.30;71.23;98444.56;5115948;28;20027;-76
2021/03/17 10:34:15;;;;;;;30.13;15.20;;;;;;;5.31;70.89;98442.66;5115697;28;20034;-75
2021/03/17 10:36:40;;;;;;;53.45;27.33;;;;;;;5.30;68.83;98444.56;5115777;28;20019;-76
2021/03/17 10:39:06;;;;;;;35.00;18.13;;;;;;;5.37;68.89;98447.03;5116187;28;20361;-76
2021/03/17 10:41:38;;;;;;;33.67;17.77;;;;;;;5.43;68.20;98442.47;5097947;28;20070;-76
2021/03/17 10:44:18;;;;;;;29.77;16.63;;;;;;;5.49;66.98;98441.44;5115738;28;20077;-76
2021/03/17 10:47:24;;;;;;;26.58;13.57;;;;;;;5.65;66.17;98437.69;5115753;28;20034;-75
2021/03/17 10:49:49;;;;;;;34.35;16.02;;;;;;;5.80;66.03;98428.78;5012863;28;20034;-76
2021/03/17 10:52:15;;;;;;;34.70;14.85;;;;;;;5.91;65.18;98432.34;5097735;28;20042;-75
2021/03/17 10:54:43;;;;;;;47.63;23.08;;;;;;;5.90;65.16;98433.47;5115615;28;20070;-76
2021/03/17 10:57:09;;;;;;;42.33;23.65;;;;;;;5.93;65.28;98434.81;5115365;28;20080;-76
2021/03/17 10:59:37;;;;;;;365.25;108.85;;;;;;;5.95;62.85;98436.19;5115214;28;20027;-75
2021/03/17 11:02:15;;;;;;;239.63;67.10;;;;;;;5.86;63.03;98434.25;5115873;28;20064;-76
2021/03/17 11:05:07;;;;;;;129.02;37.17;;;;;;;5.75;62.71;98425.22;5115583;28;20020;-76
2021/03/17 11:07:56;;;;;;;230.20;62.03;;;;;;;5.70;63.83;98434.19;5115675;28;20027;-75
2021/03/17 11:10:33;;;;;;;66.80;28.20;;;;;;;5.65;63.04;98426.00;5115292;28;20047;-75
2021/03/17 11:13:01;;;;;;;255.27;72.18;;;;;;;5.63;63.27;98431.69;5115149;28;20027;-76
2021/03/17 11:15:31;;;;;;;55.28;23.00;;;;;;;5.55;62.01;98434.09;5115290;28;20501;-75
2021/03/17 11:17:57;;;;;;;;;;;;;;;5.46;62.34;98433.78;5097549;28;20463;-75
2021/03/17 11:20:24;;;;;;;348.88;91.97;;;;;;;5.49;61.79;98433.28;5115245;28;19940;-75
2021/03/17 11:22:50;;;;;;;190.90;55.63;;;;;;;5.66;62.08;98433.88;5115015;28;20036;-76
2021/03/17 11:25:24;;;;;;;164.90;49.25;;;;;;;5.94;63.54;98425.56;5115068;28;20031;-76
2021/03/17 11:27:51;;;;;;;68.78;27.80;;;;;;;6.10;62.94;98423.75;5115051;28;20039;-75
2021/03/17 11:30:17;;;;;;;181.77;54.08;;;;;;;6.06;61.81;98428.09;5115151;28;20153;-75
2021/03/17 11:32:42;;;;;;;144.73;46.05;;;;;;;5.92;60.41;98428.53;5114828;28;20023;-76
2021/03/17 11:35:09;;;;;;;45.70;17.33;;;;;;;5.75;59.69;98427.94;5115072;28;20122;-76
2021/03/17 11:37:35;;;;;;;37.67;15.00;;;;;;;5.55;58.81;98429.47;5115061;28;20061;-77
2021/03/17 11:40:01;;;;;;;27.50;13.65;;;;;;;5.44;57.87;98420.44;5115210;28;20467;-76